sensor_id;sensor_type;location;lat;lon;timestamp;P1;durP1;ratioP1;P2;durP2;ratioP2
59314;SDS011;46521;50.160;20.802;2024-01-30T00:06:20;24.60;;;12.95;;
59314;SDS011;46521;50.160;20.802;2024-01-30T00:16:25;24.33;;;11.67;;
59314;SDS011;46521;50.160;20.802;2024-01-30T00:26:28;22.85;;;11.75;;
59314;SDS011;46521;50.160;20.802;2024-01-30T00:36:29;22.60;;;11.80;;
59314;SDS011;46521;50.160;20.802;2024-01-30T00:46:31;23.07;;;11.13;;
59314;SDS011;46521;50.160;20.802;2024-01-30T00:56:32;23.95;;;11.50;;
59314;SDS011;46521;50.160;20.802;2024-01-30T01:06:34;24.70;;;12.10;;
59314;SDS011;46521;50.160;20.802;2024-01-30T01:16:35;20.23;;;11.67;;
59314;SDS011;46521;50.160;20.802;2024-01-30T01:26:38;19.75;;;11.05;;
59314;SDS011;46521;50.160;20.802;2024-01-30T01:36:39;18.60;;;9.80;;
59314;SDS011;46521;50.160;20.802;2024-01-30T01:46:41;20.57;;;10.33;;
59314;SDS011;46521;50.160;20.802;2024-01-30T01:56:43;22.55;;;9.90;;
59314;SDS011;46521;50.160;20.802;2024-01-30T02:06:45;18.97;;;10.23;;
59314;SDS011;46521;50.160;20.802;2024-01-30T02:16:47;18.80;;;9.30;;
59314;SDS011;46521;50.160;20.802;2024-01-30T02:26:48;20.67;;;9.90;;
59314;SDS011;46521;50.160;20.802;2024-01-30T02:36:50;19.30;;;9.00;;
59314;SDS011;46521;50.160;20.802;2024-01-30T02:46:51;15.60;;;8.00;;
59314;SDS011;46521;50.160;20.802;2024-01-30T02:56:55;18.15;;;9.65;;
59314;SDS011;46521;50.160;20.802;2024-01-30T03:06:56;23.65;;;11.40;;
59314;SDS011;46521;50.160;20.802;2024-01-30T03:16:58;19.60;;;10.00;;
59314;SDS011;46521;50.160;20.802;2024-01-30T03:26:59;17.25;;;8.30;;
59314;SDS011;46521;50.160;20.802;2024-01-30T03:37:01;15.27;;;8.17;;
59314;SDS011;46521;50.160;20.802;2024-01-30T03:47:03;15.70;;;8.15;;
59314;SDS011;46521;50.160;20.802;2024-01-30T03:57:04;14.75;;;7.55;;
59314;SDS011;46521;50.160;20.802;2024-01-30T04:07:06;15.65;;;8.00;;
59314;SDS011;46521;50.160;20.802;2024-01-30T04:17:08;16.33;;;8.27;;
59314;SDS011;46521;50.160;20.802;2024-01-30T04:27:09;35.80;;;16.20;;
59314;SDS011;46521;50.160;20.802;2024-01-30T04:37:12;18.60;;;10.90;;
59314;SDS011;46521;50.160;20.802;2024-01-30T04:47:13;20.30;;;10.00;;
59314;SDS011;46521;50.160;20.802;2024-01-30T04:57:14;17.40;;;8.60;;
59314;SDS011;46521;50.160;20.802;2024-01-30T05:07:16;17.45;;;8.90;;
59314;SDS011;46521;50.160;20.802;2024-01-30T05:17:18;17.50;;;8.63;;
59314;SDS011;46521;50.160;20.802;2024-01-30T05:27:19;16.05;;;8.60;;
59314;SDS011;46521;50.160;20.802;2024-01-30T05:37:21;15.70;;;8.30;;
59314;SDS011;46521;50.160;20.802;2024-01-30T05:47:22;16.70;;;8.87;;
59314;SDS011;46521;50.160;20.802;2024-01-30T05:57:24;18.30;;;9.90;;
59314;SDS011;46521;50.160;20.802;2024-01-30T06:07:26;22.60;;;13.33;;
59314;SDS011;46521;50.160;20.802;2024-01-30T06:17:28;17.60;;;9.50;;
59314;SDS011;46521;50.160;20.802;2024-01-30T06:27:29;20.35;;;10.55;;
59314;SDS011;46521;50.160;20.802;2024-01-30T06:37:31;17.23;;;8.60;;
59314;SDS011;46521;50.160;20.802;2024-01-30T06:47:33;17.60;;;9.00;;
59314;SDS011;46521;50.160;20.802;2024-01-30T06:57:34;17.45;;;9.05;;
59314;SDS011;46521;50.160;20.802;2024-01-30T07:07:36;16.40;;;9.13;;
59314;SDS011;46521;50.160;20.802;2024-01-30T07:17:37;14.90;;;9.83;;
59314;SDS011;46521;50.160;20.802;2024-01-30T07:27:39;15.68;;;11.70;;
59314;SDS011;46521;50.160;20.802;2024-01-30T07:37:40;15.18;;;10.75;;
59314;SDS011;46521;50.160;20.802;2024-01-30T07:47:42;17.63;;;10.73;;
59314;SDS011;46521;50.160;20.802;2024-01-30T07:57:43;14.30;;;8.47;;
59314;SDS011;46521;50.160;20.802;2024-01-30T08:07:45;14.45;;;7.68;;
59314;SDS011;46521;50.160;20.802;2024-01-30T08:17:46;13.68;;;7.45;;
59314;SDS011;46521;50.160;20.802;2024-01-30T08:27:48;14.33;;;7.50;;
59314;SDS011;46521;50.160;20.802;2024-01-30T08:37:49;13.70;;;7.27;;
59314;SDS011;46521;50.160;20.802;2024-01-30T08:47:51;13.80;;;7.40;;
59314;SDS011;46521;50.160;20.802;2024-01-30T08:57:52;14.45;;;8.25;;
59314;SDS011;46521;50.160;20.802;2024-01-30T09:07:54;17.73;;;8.63;;
59314;SDS011;46521;50.160;20.802;2024-01-30T09:17:56;15.17;;;8.27;;
59314;SDS011;46521;50.160;20.802;2024-01-30T09:27:58;13.80;;;7.90;;
59314;SDS011;46521;50.160;20.802;2024-01-30T09:38:00;14.45;;;8.50;;
59314;SDS011;46521;50.160;20.802;2024-01-30T09:48:01;13.73;;;7.60;;
59314;SDS011;46521;50.160;20.802;2024-01-30T09:58:03;15.50;;;7.93;;
59314;SDS011;46521;50.160;20.802;2024-01-30T10:08:08;15.85;;;7.68;;
59314;SDS011;46521;50.160;20.802;2024-01-30T10:18:09;13.48;;;7.38;;
59314;SDS011;46521;50.160;20.802;2024-01-30T10:28:11;14.75;;;8.80;;
59314;SDS011;46521;50.160;20.802;2024-01-30T10:38:12;13.18;;;7.48;;
59314;SDS011;46521;50.160;20.802;2024-01-30T10:48:16;13.53;;;8.00;;
59314;SDS011;46521;50.160;20.802;2024-01-30T11:08:24;17.15;;;8.70;;
59314;SDS011;46521;50.160;20.802;2024-01-30T11:18:28;15.05;;;8.50;;
59314;SDS011;46521;50.160;20.802;2024-01-30T11:28:32;15.58;;;8.65;;
59314;SDS011;46521;50.160;20.802;2024-01-30T11:38:37;15.57;;;8.80;;
59314;SDS011;46521;50.160;20.802;2024-01-30T11:48:39;14.38;;;8.95;;
59314;SDS011;46521;50.160;20.802;2024-01-30T11:58:43;17.33;;;8.53;;
59314;SDS011;46521;50.160;20.802;2024-01-30T12:08:58;15.90;;;8.65;;
59314;SDS011;46521;50.160;20.802;2024-01-30T12:19:00;16.10;;;8.83;;
59314;SDS011;46521;50.160;20.802;2024-01-30T12:29:03;15.25;;;8.70;;
59314;SDS011;46521;50.160;20.802;2024-01-30T12:39:05;16.43;;;8.85;;
59314;SDS011;46521;50.160;20.802;2024-01-30T12:49:07;14.45;;;8.90;;
59314;SDS011;46521;50.160;20.802;2024-01-30T12:59:08;16.93;;;10.48;;
59314;SDS011;46521;50.160;20.802;2024-01-30T13:09:10;14.90;;;8.93;;
59314;SDS011;46521;50.160;20.802;2024-01-30T13:19:13;14.48;;;7.95;;
59314;SDS011;46521;50.160;20.802;2024-01-30T13:29:15;17.83;;;9.28;;
59314;SDS011;46521;50.160;20.802;2024-01-30T13:39:16;16.78;;;9.13;;
59314;SDS011;46521;50.160;20.802;2024-01-30T13:49:18;20.78;;;11.33;;
59314;SDS011;46521;50.160;20.802;2024-01-30T13:59:20;17.27;;;10.87;;
59314;SDS011;46521;50.160;20.802;2024-01-30T14:09:25;15.20;;;9.60;;
59314;SDS011;46521;50.160;20.802;2024-01-30T14:19:26;16.87;;;8.97;;
59314;SDS011;46521;50.160;20.802;2024-01-30T14:29:28;17.28;;;9.98;;
59314;SDS011;46521;50.160;20.802;2024-01-30T14:39:29;22.93;;;11.58;;
59314;SDS011;46521;50.160;20.802;2024-01-30T14:49:31;20.43;;;10.33;;
59314;SDS011;46521;50.160;20.802;2024-01-30T14:59:32;24.20;;;15.73;;
59314;SDS011;46521;50.160;20.802;2024-01-30T15:09:35;35.88;;;19.03;;
59314;SDS011;46521;50.160;20.802;2024-01-30T15:19:36;24.03;;;12.00;;
59314;SDS011;46521;50.160;20.802;2024-01-30T15:29:38;27.25;;;15.05;;
59314;SDS011;46521;50.160;20.802;2024-01-30T15:39:39;31.20;;;14.33;;
59314;SDS011;46521;50.160;20.802;2024-01-30T15:49:41;42.05;;;20.50;;
59314;SDS011;46521;50.160;20.802;2024-01-30T15:59:42;41.60;;;21.30;;
59314;SDS011;46521;50.160;20.802;2024-01-30T16:09:44;50.50;;;23.93;;
59314;SDS011;46521;50.160;20.802;2024-01-30T16:19:47;38.50;;;19.75;;
59314;SDS011;46521;50.160;20.802;2024-01-30T16:39:53;52.25;;;28.30;;
59314;SDS011;46521;50.160;20.802;2024-01-30T16:49:55;57.60;;;34.00;;
59314;SDS011;46521;50.160;20.802;2024-01-30T16:59:57;50.90;;;28.45;;
59314;SDS011;46521;50.160;20.802;2024-01-30T17:09:58;53.65;;;31.00;;
59314;SDS011;46521;50.160;20.802;2024-01-30T17:20:00;45.75;;;25.10;;
59314;SDS011;46521;50.160;20.802;2024-01-30T17:30:02;53.70;;;29.00;;
59314;SDS011;46521;50.160;20.802;2024-01-30T17:40:04;64.10;;;36.90;;
59314;SDS011;46521;50.160;20.802;2024-01-30T17:50:07;54.00;;;30.80;;
59314;SDS011;46521;50.160;20.802;2024-01-30T18:00:09;54.30;;;32.15;;
59314;SDS011;46521;50.160;20.802;2024-01-30T18:10:11;42.50;;;23.60;;
59314;SDS011;46521;50.160;20.802;2024-01-30T18:20:14;33.45;;;20.95;;
59314;SDS011;46521;50.160;20.802;2024-01-30T18:30:15;30.65;;;17.95;;
59314;SDS011;46521;50.160;20.802;2024-01-30T18:40:17;37.25;;;23.35;;
59314;SDS011;46521;50.160;20.802;2024-01-30T18:50:18;32.37;;;18.47;;
59314;SDS011;46521;50.160;20.802;2024-01-30T19:00:20;28.60;;;16.90;;
59314;SDS011;46521;50.160;20.802;2024-01-30T19:10:21;39.00;;;20.40;;
59314;SDS011;46521;50.160;20.802;2024-01-30T19:20:23;53.90;;;24.70;;
59314;SDS011;46521;50.160;20.802;2024-01-30T19:30:25;44.20;;;22.20;;
59314;SDS011;46521;50.160;20.802;2024-01-30T19:40:27;36.00;;;19.85;;
59314;SDS011;46521;50.160;20.802;2024-01-30T19:50:29;30.70;;;17.47;;
59314;SDS011;46521;50.160;20.802;2024-01-30T20:00:30;38.65;;;20.65;;
59314;SDS011;46521;50.160;20.802;2024-01-30T20:10:32;40.10;;;20.37;;
59314;SDS011;46521;50.160;20.802;2024-01-30T20:20:33;43.13;;;21.47;;
59314;SDS011;46521;50.160;20.802;2024-01-30T20:30:35;38.40;;;20.80;;
59314;SDS011;46521;50.160;20.802;2024-01-30T20:40:36;32.87;;;20.73;;
59314;SDS011;46521;50.160;20.802;2024-01-30T20:50:38;45.40;;;24.05;;
59314;SDS011;46521;50.160;20.802;2024-01-30T21:00:40;30.15;;;17.75;;
59314;SDS011;46521;50.160;20.802;2024-01-30T21:10:41;26.55;;;16.20;;
59314;SDS011;46521;50.160;20.802;2024-01-30T21:20:43;30.05;;;16.70;;
59314;SDS011;46521;50.160;20.802;2024-01-30T21:30:44;27.20;;;16.30;;
59314;SDS011;46521;50.160;20.802;2024-01-30T21:40:46;24.15;;;14.50;;
59314;SDS011;46521;50.160;20.802;2024-01-30T21:50:47;26.20;;;14.95;;
59314;SDS011;46521;50.160;20.802;2024-01-30T22:00:49;26.50;;;13.60;;
59314;SDS011;46521;50.160;20.802;2024-01-30T22:10:50;24.60;;;15.25;;
59314;SDS011;46521;50.160;20.802;2024-01-30T22:20:52;25.05;;;14.80;;
59314;SDS011;46521;50.160;20.802;2024-01-30T22:30:54;25.95;;;16.20;;
59314;SDS011;46521;50.160;20.802;2024-01-30T22:40:59;27.97;;;16.37;;
59314;SDS011;46521;50.160;20.802;2024-01-30T22:51:00;32.40;;;18.55;;
59314;SDS011;46521;50.160;20.802;2024-01-30T23:01:02;27.40;;;15.90;;
59314;SDS011;46521;50.160;20.802;2024-01-30T23:11:03;31.25;;;17.65;;
59314;SDS011;46521;50.160;20.802;2024-01-30T23:21:05;30.30;;;18.15;;
59314;SDS011;46521;50.160;20.802;2024-01-30T23:31:06;29.00;;;17.60;;
59314;SDS011;46521;50.160;20.802;2024-01-30T23:41:08;26.43;;;15.43;;
59314;SDS011;46521;50.160;20.802;2024-01-30T23:51:10;28.30;;;15.90;;
